Time;durP1;ratioP1;P1;durP2;ratioP2;P2;SDS_P1;SDS_P2;PMS_P1;PMS_P2;Temp;Humidity;BMP_temperature;BMP_pressure;BME280_temperature;BME280_humidity;BME280_pressure;Samples;Min_cycle;Max_cycle;Signal;HPM_P1;HPM_P2
2024/01/16 00:06:18;;;;;;;2.07;1.70;;;-1.20;96.20;;;;;;6064981;23;20192;-84
2024/01/16 00:31:33;;;;;;;2.43;1.53;;;-1.30;97.00;;;;;;6071270;23;20215;-83
2024/01/16 01:02:05;;;;;;;3.13;1.97;;;-1.30;98.20;;;;;;6080731;23;20618;-84
2024/01/16 01:22:20;;;;;;;3.00;1.83;;;-1.50;97.70;;;;;;5655791;25;20297;-83
2024/01/16 02:07:29;;;;;;;3.57;2.17;;;-2.00;99.00;;;;;;5897605;24;20224;-86
2024/01/16 02:28:27;;;;;;;1.77;1.60;;;-2.10;90.70;;;;;;5835319;24;21352;-83
2024/01/16 02:53:39;;;;;;;2.30;1.80;;;-2.30;88.60;;;;;;5933240;24;20547;-86
2024/01/16 03:49:18;;;;;;;2.70;2.20;;;-3.60;95.60;;;;;;5737673;24;20260;-85
2024/01/16 04:15:08;;;;;;;2.53;2.20;;;-3.80;97.60;;;;;;5924796;23;20212;-85
2024/01/16 04:35:27;;;;;;;2.37;1.70;;;-3.60;92.40;;;;;;5861588;24;20180;-85
2024/01/16 04:55:45;;;;;;;1.50;1.40;;;-4.20;93.30;;;;;;5945691;23;20352;-87
2024/01/16 05:15:54;;;;;;;2.93;1.90;;;-4.60;97.60;;;;;;5742972;24;20255;-85
2024/01/16 05:46:25;;;;;;;3.37;2.60;;;-4.50;99.90;;;;;;6017213;23;20182;-84
2024/01/16 06:11:12;;;;;;;3.30;2.80;;;-4.80;99.90;;;;;;5831081;24;20555;-85
2024/01/16 06:36:36;;;;;;;2.50;2.30;;;-4.30;98.40;;;;;;5628653;24;21130;-86
2024/01/16 07:33:08;;;;;;;3.40;1.50;;;-3.60;90.90;;;;;;5793314;24;20770;-84
2024/01/16 07:58:31;;;;;;;2.43;1.60;;;-4.10;90.90;;;;;;5715620;24;20596;-86
2024/01/16 08:28:42;;;;;;;1.43;1.27;;;-3.80;88.00;;;;;;5870738;23;20338;-85
2024/01/16 08:59:04;;;;;;;4.03;1.40;;;-3.70;86.20;;;;;;5670314;24;20586;-86
2024/01/16 09:24:34;;;;;;;1.17;1.00;;;-3.60;84.70;;;;;;5673440;24;20187;-85
2024/01/16 09:44:35;;;;;;;4.17;1.27;;;-3.30;82.60;;;;;;5422791;25;20590;-82
2024/01/16 10:05:08;;;;;;;2.93;1.23;;;-3.10;81.40;;;;;;5452315;25;20579;-84
2024/01/16 10:35:31;;;;;;;3.47;1.77;;;-2.90;81.50;;;;;;5780113;24;21257;-84
2024/01/16 11:00:53;;;;;;;3.90;2.60;;;-2.40;81.80;;;;;;5708223;24;20762;-81
2024/01/16 11:21:26;;;;;;;6.13;2.90;;;-2.50;83.00;;;;;;5625113;24;20186;-84
2024/01/16 11:47:05;;;;;;;4.80;3.23;;;-2.40;84.20;;;;;;5529629;25;20380;-82
2024/01/16 11:51:25;;;;;;;5.73;3.47;;;-2.40;84.30;;;;;;5513326;25;20789;-83
2024/01/16 12:27:00;;;;;;;8.10;3.60;;;-2.00;84.30;;;;;;5530984;24;20429;-81
2024/01/16 13:02:39;;;;;;;3.87;3.10;;;-2.10;83.20;;;;;;5754386;23;20643;-83
2024/01/16 13:28:32;;;;;;;5.07;2.83;;;-2.20;83.40;;;;;;5644258;24;20179;-83
2024/01/16 13:54:00;;;;;;;5.17;2.70;;;-2.30;83.80;;;;;;5689806;24;20236;-85
2024/01/16 14:19:22;;;;;;;3.50;2.80;;;-2.90;85.10;;;;;;5712263;24;20513;-84
2024/01/16 14:54:55;;;;;;;5.50;3.47;;;-3.40;89.90;;;;;;5874007;24;20709;-84
2024/01/16 15:29:55;;;;;;;6.93;4.00;;;-4.30;92.80;;;;;;5654912;24;20399;-84
2024/01/16 16:05:56;;;;;;;8.57;4.43;;;-4.00;91.70;;;;;;5966935;23;20175;-86
2024/01/16 16:31:19;;;;;;;7.43;4.80;;;-4.50;93.50;;;;;;5952771;23;20770;-85
2024/01/16 17:01:11;;;;;;;14.93;8.00;;;-4.80;93.10;;;;;;5859434;24;20250;-84
2024/01/16 17:21:48;;;;;;;12.90;8.37;;;-5.80;98.70;;;;;;5909129;23;20480;-85
2024/01/16 17:47:17;;;;;;;19.93;9.27;;;-7.00;99.90;;;;;;6007472;23;20247;-85
2024/01/16 18:12:52;;;;;;;15.87;10.20;;;-5.90;99.90;;;;;;5930485;23;20644;-86
2024/01/16 18:47:50;;;;;;;26.97;12.90;;;-6.20;99.90;;;;;;6075660;23;20201;-85
2024/01/16 20:29:29;;;;;;;28.13;15.37;;;-7.10;99.90;;;;;;5948208;23;20501;-85
2024/01/16 21:36:04;;;;;;;29.57;16.70;;;-7.30;99.90;;;;;;6042745;23;21038;-85
2024/01/16 22:16:18;;;;;;;30.17;15.93;;;-7.80;99.90;;;;;;5840421;24;20442;-85
